Time;durP1;ratioP1;P1;durP2;ratioP2;P2;SDS_P1;SDS_P2;PMS_P1;PMS_P2;Temp;Humidity;BMP_temperature;BMP_pressure;BME280_temperature;BME280_humidity;BME280_pressure;Samples;Min_cycle;Max_cycle;Signal;HPM_P1;HPM_P2
2021/12/23 00:01:43;;;;;;;0.20;0.20;;;-5.40;99.90;;;-5.91;100.00;100643.03;4972082;28;20224;-77
2021/12/23 00:04:12;;;;;;;0.65;0.65;;;-5.50;99.90;;;-5.91;100.00;100637.88;4960247;28;20235;-77
2021/12/23 00:06:44;;;;;;;0.20;0.20;;;-5.50;99.90;;;-5.90;100.00;100640.56;4960684;28;20220;-77
2021/12/23 00:09:12;;;;;;;0.20;0.20;;;-5.60;99.90;;;-5.90;100.00;100626.78;4957981;28;20209;-76
2021/12/23 00:11:41;;;;;;;0.20;0.20;;;-5.50;99.90;;;-5.94;100.00;100633.38;4942940;28;20213;-76
2021/12/23 00:14:10;;;;;;;0.20;0.20;;;-5.50;99.90;;;-5.92;100.00;100633.50;4960244;28;20231;-75
2021/12/23 00:16:55;;;;;;;0.38;0.38;;;-5.50;99.90;;;-5.89;100.00;100641.47;4956827;28;20217;-76
2021/12/23 00:24:43;;;;;;;0.20;0.20;;;-5.60;99.90;;;-5.87;100.00;100627.91;5005268;28;20224;-79
2021/12/23 00:27:12;;;;;;;0.30;0.30;;;-5.60;99.90;;;-5.89;100.00;100616.56;4990918;28;20214;-79
2021/12/23 00:29:41;;;;;;;0.20;0.20;;;-5.50;99.90;;;-5.87;100.00;100621.84;4994654;28;20207;-80
2021/12/23 00:32:09;;;;;;;0.20;0.20;;;-5.80;99.90;;;-5.87;100.00;100622.75;4971159;28;20209;-78
2021/12/23 00:34:38;;;;;;;0.20;0.20;;;-5.30;99.90;;;-5.85;100.00;100620.28;4970163;28;20216;-78
2021/12/23 00:37:10;;;;;;;0.32;0.32;;;-5.50;99.90;;;-5.84;100.00;100629.81;4971645;28;20209;-78
2021/12/23 00:39:37;;;;;;;0.20;0.20;;;-5.30;99.90;;;-5.84;100.00;100629.81;5006527;28;20690;-78
2021/12/23 00:42:08;;;;;;;0.20;0.20;;;-5.50;99.90;;;-5.83;100.00;100631.59;4959699;28;20225;-78
2021/12/23 00:44:45;;;;;;;0.20;0.20;;;-5.50;99.90;;;-5.82;100.00;100636.88;4958848;28;20211;-78
2021/12/23 00:47:14;;;;;;;2.33;2.22;;;-5.40;99.90;;;-5.84;100.00;100627.22;4990978;28;20208;-78
2021/12/23 00:49:43;;;;;;;0.20;0.20;;;;;;;-5.84;100.00;100620.41;4941305;28;20213;-79
2021/12/23 00:52:10;;;;;;;0.20;0.20;;;-5.30;99.90;;;-5.88;100.00;100625.19;4974588;28;20207;-79
2021/12/23 00:54:38;;;;;;;0.20;0.20;;;-5.50;99.90;;;-5.86;100.00;100627.13;4960964;28;20689;-78
2021/12/23 00:57:06;;;;;;;0.40;0.40;;;;;;;-5.84;100.00;100629.81;4958520;28;20215;-79
2021/12/23 00:59:37;;;;;;;0.28;0.28;;;;;;;-5.87;100.00;100630.47;4940302;28;20222;-78
2021/12/23 01:02:08;;;;;;;0.20;0.20;;;-5.60;99.90;;;-5.83;100.00;100626.44;4985515;28;20229;-78
2021/12/23 01:04:37;;;;;;;0.30;0.30;;;-5.50;99.90;;;-5.83;100.00;100623.88;4983973;28;20217;-79
2021/12/23 01:07:05;;;;;;;0.20;0.20;;;-5.50;99.90;;;-5.84;100.00;100616.94;4941185;28;20209;-78
2021/12/23 01:09:33;;;;;;;0.20;0.20;;;;;;;-5.82;100.00;100628.25;4973429;28;20220;-79
2021/12/23 01:12:02;;;;;;;0.20;0.20;;;-5.40;99.90;;;-5.80;100.00;100631.84;4958570;28;20209;-78
2021/12/23 01:14:40;;;;;;;2.38;2.22;;;-5.30;99.90;;;-5.82;100.00;100618.84;4972996;28;20209;-80
2021/12/23 01:19:51;;;;;;;0.20;0.20;;;-5.40;99.90;;;-5.83;100.00;100623.88;4978360;28;20207;-79
2021/12/23 01:22:20;;;;;;;0.40;0.40;;;-5.30;99.90;;;-5.82;100.00;100626.56;4963568;28;20611;-79
2021/12/23 01:24:50;;;;;;;0.20;0.20;;;-5.10;99.90;;;-5.84;100.00;100616.94;4953405;28;20199;-78
2021/12/23 01:27:18;;;;;;;0.20;0.20;;;-5.50;99.90;;;-5.83;100.00;100626.44;4945398;28;20212;-79
2021/12/23 01:29:46;;;;;;;0.20;0.20;;;-5.30;99.90;;;-5.79;100.00;100628.47;4993221;28;20220;-78
2021/12/23 01:32:14;;;;;;;0.40;0.40;;;-5.40;99.90;;;-5.83;100.00;100629.91;4946260;28;20209;-79
2021/12/23 01:34:42;;;;;;;0.20;0.20;;;-5.40;99.90;;;-5.81;100.00;100617.16;4960792;28;20223;-78
2021/12/23 01:37:10;;;;;;;0.20;0.20;;;-5.30;99.90;;;-5.79;100.00;100625.91;4942765;28;20204;-78
2021/12/23 01:39:38;;;;;;;0.20;0.20;;;-5.20;99.90;;;-5.76;100.00;100627.81;4943808;28;20208;-78
2021/12/23 01:42:06;;;;;;;0.20;0.20;;;-5.40;99.90;;;-5.72;100.00;100632.41;4954457;28;20233;-78
2021/12/23 01:44:34;;;;;;;0.30;0.30;;;-5.40;99.90;;;-5.71;100.00;100641.94;4987418;28;20678;-78
2021/12/23 01:47:02;;;;;;;0.40;0.40;;;-5.40;99.90;;;-5.73;100.00;100635.78;4955882;28;20200;-78
2021/12/23 01:49:31;;;;;;;0.20;0.20;;;-5.40;99.90;;;-5.74;100.00;100639.13;4982205;28;20208;-79
2021/12/23 01:51:59;;;;;;;0.40;0.40;;;-5.30;99.90;;;-5.69;100.00;100638.69;4973636;28;20220;-78
2021/12/23 01:54:27;;;;;;;0.20;0.20;;;-5.30;99.90;;;-5.69;100.00;100646.44;4993156;28;20213;-79
2021/12/23 01:56:55;;;;;;;0.20;0.20;;;-5.30;99.90;;;-5.63;100.00;100649.47;4960933;28;20696;-79
2021/12/23 01:59:23;;;;;;;0.30;0.30;;;-5.00;99.90;;;-5.61;100.00;100647.00;4957634;28;20211;-79
2021/12/23 02:01:51;;;;;;;0.30;0.30;;;-5.30;99.90;;;-5.59;100.00;100632.56;4969227;28;20225;-79
2021/12/23 02:04:19;;;;;;;0.20;0.20;;;-5.00;99.90;;;-5.55;100.00;100638.06;4960255;28;20239;-79
2021/12/23 02:06:46;;;;;;;0.30;0.30;;;-5.20;99.90;;;-5.56;100.00;100627.66;4959881;28;20208;-78
2021/12/23 02:09:15;;;;;;;1.90;1.80;;;;;;;-5.57;100.00;100621.59;4955978;28;20216;-79
2021/12/23 02:11:45;;;;;;;0.20;0.20;;;-5.20;99.90;;;-5.59;100.00;100611.94;4984707;28;20208;-78
2021/12/23 02:14:13;;;;;;;0.20;0.20;;;-5.20;99.90;;;-5.65;100.00;100611.50;4950855;28;20228;-80
2021/12/23 02:16:41;;;;;;;0.25;0.25;;;-5.20;99.90;;;-5.62;100.00;100609.16;4997936;28;20216;-80
2021/12/23 02:19:21;;;;;;;0.25;0.25;;;-5.10;99.90;;;-5.64;100.00;100610.72;4997596;28;20210;-79
2021/12/23 02:21:49;;;;;;;5.47;1.48;;;;;;;-5.62;100.00;100614.31;4959525;28;20221;-79
2021/12/23 02:24:17;;;;;;;0.20;0.20;;;;;;;-5.60;100.00;100618.78;4995144;28;20229;-79
2021/12/23 02:26:45;;;;;;;0.40;0.40;;;;;;;-5.57;100.00;100628.44;4996233;28;20213;-79
2021/12/23 02:29:13;;;;;;;0.20;0.20;;;;;;;-5.56;100.00;100625.06;4947126;28;20213;-81
2021/12/23 02:31:48;;;;;;;0.20;0.20;;;-5.20;99.90;;;-5.54;100.00;100613.19;4979283;28;20201;-79
2021/12/23 02:34:19;;;;;;;0.20;0.20;;;-5.20;99.90;;;-5.52;100.00;100601.31;5006103;28;20231;-79
2021/12/23 02:36:53;;;;;;;0.20;0.20;;;-5.10;99.90;;;-5.52;100.00;100614.22;4977120;28;20204;-79
2021/12/23 02:39:24;;;;;;;0.20;0.20;;;-5.10;99.90;;;-5.49;100.00;100619.59;4979053;28;20200;-79
2021/12/23 02:41:52;;;;;;;0.20;0.20;;;-5.00;99.90;;;-5.49;100.00;100612.75;4989733;28;20231;-79
2021/12/23 02:44:21;;;;;;;0.20;0.20;;;-5.10;99.90;;;-5.48;100.00;100601.66;4990258;28;20231;-80
2021/12/23 02:46:49;;;;;;;0.20;0.20;;;-5.00;99.90;;;-5.44;100.00;100614.78;4987799;28;20722;-79
2021/12/23 02:49:19;;;;;;;0.30;0.30;;;-4.90;99.90;;;-5.44;100.00;100622.50;4991843;28;20205;-79
2021/12/23 02:51:46;;;;;;;0.20;0.20;;;-5.00;99.90;;;-5.41;100.00;100615.00;4943365;28;20216;-79
2021/12/23 02:54:14;;;;;;;0.20;0.20;;;-5.00;99.90;;;-5.41;100.00;100615.00;4975974;28;20238;-79
2021/12/23 02:56:42;;;;;;;0.20;0.20;;;-5.00;99.90;;;-5.38;100.00;100626.44;4958113;28;20219;-79
2021/12/23 02:59:10;;;;;;;0.30;0.30;;;-4.90;99.90;;;-5.38;100.00;100616.13;4948408;28;20204;-79
2021/12/23 03:01:38;;;;;;;0.20;0.20;;;;;;;-5.35;100.00;100623.19;4975288;28;20212;-79
2021/12/23 03:04:07;;;;;;;0.20;0.20;;;-4.90;99.90;;;-5.33;100.00;100627.69;5005248;28;20232;-79
2021/12/23 03:06:34;;;;;;;0.20;0.20;;;-4.90;99.90;;;-5.29;100.00;100633.97;4978381;28;20209;-79
2021/12/23 03:09:04;;;;;;;0.20;0.20;;;-4.80;99.90;;;-5.26;100.00;100629.03;4963649;28;20212;-78
2021/12/23 03:11:33;;;;;;;0.20;0.20;;;-4.80;99.90;;;-5.26;100.00;100627.34;4972539;28;20208;-78
2021/12/23 03:14:01;;;;;;;1.38;1.38;;;-4.80;99.90;;;-5.21;100.00;100640.59;4995191;28;20232;-78
2021/12/23 03:16:34;;;;;;;0.20;0.20;;;-4.70;99.90;;;-5.20;100.00;100650.16;4988572;28;20683;-77
2021/12/23 03:19:04;;;;;;;0.20;0.20;;;-4.70;99.90;;;-5.19;100.00;100649.38;4958174;28;20204;-79
2021/12/23 03:21:35;;;;;;;0.20;0.20;;;-4.70;99.90;;;-5.19;100.00;100651.94;4968652;28;20207;-79
2021/12/23 03:24:04;;;;;;;0.20;0.20;;;;;;;-5.19;100.00;100657.09;4956797;28;20582;-80
2021/12/23 03:26:32;;;;;;;0.40;0.40;;;-4.60;99.90;;;-5.18;100.00;100646.00;4974737;28;20212;-79
2021/12/23 03:29:00;;;;;;;0.20;0.20;;;-4.80;99.90;;;-5.24;100.00;100624.91;4970297;28;20215;-79
2021/12/23 03:31:27;;;;;;;0.20;0.20;;;-4.60;99.90;;;-5.23;100.00;100609.53;4986158;28;20208;-78
2021/12/23 03:33:55;;;;;;;0.30;0.30;;;-4.80;99.90;;;-5.18;100.00;100609.91;4957189;28;20603;-78
2021/12/23 03:36:24;;;;;;;0.20;0.20;;;;;;;-5.16;100.00;100606.66;4992433;28;20607;-80
2021/12/23 03:38:52;;;;;;;0.20;0.20;;;;;;;-5.14;100.00;100609.34;5008590;28;20208;-79
2021/12/23 03:41:20;;;;;;;0.30;0.30;;;;;;;-5.10;100.00;100597.59;5008913;28;20215;-79
2021/12/23 03:43:48;;;;;;;0.20;0.20;;;;;;;-5.11;100.00;100607.00;5009089;28;20239;-80
2021/12/23 03:46:16;;;;;;;0.20;0.20;;;-4.70;99.90;;;-5.12;100.00;100599.16;4992806;28;20212;-79
2021/12/23 03:48:44;;;;;;;0.20;0.20;;;;;;;-5.07;100.00;100600.38;4961246;28;20213;-80
2021/12/23 03:51:13;;;;;;;0.20;0.20;;;-4.70;99.90;;;-5.08;100.00;100596.91;4991059;28;20211;-78
2021/12/23 03:53:41;;;;;;;0.30;0.30;;;-4.70;99.90;;;-5.06;100.00;100597.91;4965571;28;20224;-79
2021/12/23 03:56:09;;;;;;;0.30;0.30;;;-4.60;99.90;;;-5.04;100.00;100588.63;4993251;28;20212;-79
2021/12/23 03:58:37;;;;;;;0.20;0.20;;;-4.60;99.90;;;-4.99;100.00;100601.84;4979092;28;20208;-79
2021/12/23 04:01:05;;;;;;;0.20;0.20;;;-4.50;99.90;;;-4.97;100.00;100595.13;4993091;28;20209;-79
2021/12/23 04:03:34;;;;;;;0.90;0.90;;;;;;;-4.96;100.00;100594.31;4976450;28;20243;-79
2021/12/23 04:06:02;;;;;;;0.20;0.20;;;;;;;-4.95;100.00;100597.03;5007854;28;20216;-79
2021/12/23 04:08:30;;;;;;;0.22;0.22;;;;;;;-4.91;100.00;100598.13;4970135;28;20220;-80
2021/12/23 04:11:00;;;;;;;0.20;0.20;;;;;;;-4.89;100.00;100593.97;4946325;28;20224;-80
2021/12/23 04:13:28;;;;;;;0.10;0.10;;;-4.40;99.90;;;-4.88;100.00;100591.53;5012448;28;20231;-79
2021/12/23 04:15:56;;;;;;;0.20;0.20;;;;;;;-4.82;100.00;100596.22;4989980;28;20224;-79
2021/12/23 04:18:24;;;;;;;0.30;0.30;;;-4.40;99.90;;;-4.82;100.00;100591.06;4986272;28;20211;-79
2021/12/23 04:20:54;;;;;;;0.20;0.20;;;-4.40;99.90;;;-4.79;100.00;100595.53;4990468;28;20212;-78
2021/12/23 04:23:28;;;;;;;0.20;0.20;;;-4.60;99.90;;;-4.77;100.00;100600.03;4975542;28;20232;-79
2021/12/23 04:25:57;;;;;;;3.75;3.40;;;-3.90;99.90;;;-4.84;100.00;100598.69;4971329;28;20219;-79
2021/12/23 04:28:26;;;;;;;0.20;0.20;;;-4.30;99.90;;;-4.81;100.00;100597.13;5012491;28;20203;-79
2021/12/23 04:30:54;;;;;;;0.47;0.47;;;-4.20;99.90;;;-4.76;100.00;100595.78;4964587;28;20344;-79
2021/12/23 04:33:22;;;;;;;0.30;0.30;;;-4.30;99.90;;;-4.75;100.00;100593.28;5008243;28;20239;-79
2021/12/23 04:35:50;;;;;;;0.30;0.30;;;;;;;-4.73;100.00;100588.25;5000313;28;20222;-79
2021/12/23 04:38:18;;;;;;;0.30;0.30;;;-4.30;99.90;;;-4.72;100.00;100575.47;5025088;28;20224;-79
2021/12/23 04:40:46;;;;;;;0.20;0.20;;;-4.30;99.90;;;-4.72;100.00;100582.31;4945253;28;20205;-79
2021/12/23 04:43:14;;;;;;;0.20;0.20;;;;;;;-4.68;100.00;100571.41;4998349;28;20234;-79
2021/12/23 04:45:42;;;;;;;0.20;0.20;;;;;;;-4.68;100.00;100562.00;4976152;28;20215;-81
2021/12/23 04:48:10;;;;;;;0.20;0.20;;;;;;;-4.65;100.00;100562.19;4975238;28;20225;-80
2021/12/23 04:50:38;;;;;;;0.20;0.20;;;;;;;-4.61;100.00;100565.91;4960161;28;20223;-79
2021/12/23 04:53:06;;;;;;;0.30;0.30;;;;;;;-4.56;100.00;100575.75;4991016;28;20227;-79
2021/12/23 04:55:34;;;;;;;0.20;0.20;;;-2.50;99.90;;;-4.53;100.00;100563.06;4979083;28;20208;-79
2021/12/23 04:58:03;;;;;;;0.20;0.20;;;;;;;-4.47;100.00;100565.19;4974144;28;20219;-80
2021/12/23 05:00:31;;;;;;;0.20;0.20;;;;;;;-4.45;100.00;100562.72;5007396;28;20216;-80
2021/12/23 05:02:59;;;;;;;0.20;0.20;;;;;;;-4.43;100.00;100562.03;4968760;28;20244;-79
2021/12/23 05:05:27;;;;;;;0.20;0.20;;;-4.00;99.90;;;-4.43;100.00;100555.97;4976417;28;20229;-79
2021/12/23 05:07:56;;;;;;;0.15;0.15;;;-4.00;99.90;;;-4.43;100.00;100558.56;4989155;28;20208;-79
2021/12/23 05:10:25;;;;;;;0.20;0.20;;;-3.90;99.90;;;-4.39;100.00;100561.44;5005269;28;20552;-79
2021/12/23 05:12:59;;;;;;;0.20;0.20;;;-3.90;99.90;;;-4.37;100.00;100570.19;4968885;28;20228;-79
2021/12/23 05:15:28;;;;;;;0.20;0.20;;;-3.90;99.90;;;-4.37;100.00;100575.38;5000665;28;20674;-79
2021/12/23 05:17:56;;;;;;;0.38;0.38;;;-3.90;99.90;;;-4.34;100.00;100587.59;4955601;28;20215;-80
2021/12/23 05:20:25;;;;;;;0.10;0.10;;;-3.90;99.90;;;-4.31;100.00;100591.28;4983945;28;20229;-79
2021/12/23 05:22:53;;;;;;;0.13;0.13;;;-3.60;99.90;;;-4.31;100.00;100591.28;5001945;28;20586;-79
2021/12/23 05:25:21;;;;;;;0.20;0.20;;;-3.90;99.90;;;-4.31;100.00;100577.47;4952896;28;20208;-79
2021/12/23 05:27:52;;;;;;;0.28;0.28;;;0.40;99.90;;;-4.32;100.00;100579.16;4968269;28;20212;-78
2021/12/23 05:30:22;;;;;;;0.20;0.20;;;-3.90;99.90;;;-4.32;100.00;100573.09;5002660;28;20209;-79
2021/12/23 05:32:50;;;;;;;0.20;0.20;;;-3.40;99.90;;;-4.31;100.00;100570.63;4941237;28;20237;-81
2021/12/23 05:35:20;;;;;;;0.20;0.20;;;-3.80;99.90;;;-4.28;100.00;100575.09;4971797;28;20227;-79
2021/12/23 05:37:48;;;;;;;0.20;0.20;;;-3.90;99.90;;;-4.28;100.00;100578.59;4989295;28;20204;-78
2021/12/23 05:40:19;;;;;;;0.20;0.20;;;-3.80;99.90;;;-4.28;100.00;100573.44;4973404;28;20281;-79
2021/12/23 05:42:48;;;;;;;1.92;1.80;;;-3.80;99.90;;;-4.31;100.00;100570.63;5005419;28;20247;-79
2021/12/23 05:45:17;;;;;;;0.20;0.20;;;-3.80;99.90;;;-4.28;100.00;100570.84;4970860;28;20240;-78
2021/12/23 05:47:47;;;;;;;0.20;0.20;;;-3.80;99.90;;;-4.27;100.00;100574.31;4972184;28;20208;-79
2021/12/23 05:50:17;;;;;;;0.20;0.20;;;-3.80;99.90;;;-4.22;100.00;100573.84;4942196;28;20224;-79
2021/12/23 05:52:45;;;;;;;0.20;0.20;;;;;;;-4.20;100.00;100567.09;4977500;28;20239;-80
2021/12/23 05:55:14;;;;;;;0.20;0.20;;;-3.70;99.90;;;-4.19;100.00;100566.31;4973240;28;20216;-77
2021/12/23 05:57:43;;;;;;;0.20;0.20;;;-3.70;99.90;;;-4.15;100.00;100574.28;4962144;28;20209;-77
2021/12/23 06:00:16;;;;;;;2.03;0.95;;;-3.70;99.90;;;-4.17;100.00;100571.59;4971970;28;20215;-77
2021/12/23 06:02:45;;;;;;;0.65;0.65;;;-3.70;99.90;;;-4.14;100.00;100583.81;4969379;28;20251;-78
2021/12/23 06:05:14;;;;;;;0.20;0.20;;;-3.70;99.90;;;-4.11;100.00;100574.59;4978393;28;20236;-78
2021/12/23 06:07:43;;;;;;;0.30;0.30;;;-3.70;99.90;;;-4.08;100.00;100576.50;4982554;28;20208;-77
2021/12/23 06:10:13;;;;;;;0.20;0.20;;;-3.60;99.90;;;-4.07;100.00;100567.94;5018289;28;20226;-76
2021/12/23 06:12:42;;;;;;;0.20;0.20;;;;;;;-4.04;100.00;100578.50;5007112;28;20236;-78
2021/12/23 06:15:11;;;;;;;0.20;0.20;;;-3.60;99.90;;;-4.05;100.00;100581.88;4974016;28;20209;-78
2021/12/23 06:17:39;;;;;;;0.20;0.20;;;-3.60;99.90;;;-4.05;100.00;100545.72;4974797;28;20201;-77
2021/12/23 06:20:09;;;;;;;0.20;0.20;;;-3.60;99.90;;;-4.05;100.00;100551.78;4940098;28;20209;-78
2021/12/23 06:22:38;;;;;;;2.63;1.15;;;-3.60;99.90;;;-4.06;100.00;100557.72;4973822;28;20711;-77
2021/12/23 06:25:09;;;;;;;0.20;0.20;;;-3.60;99.90;;;-4.05;100.00;100559.50;4957765;28;20282;-77
2021/12/23 06:27:37;;;;;;;0.20;0.20;;;-3.60;99.90;;;-4.03;100.00;100547.59;4969323;28;20205;-78
2021/12/23 06:30:28;;;;;;;0.10;0.10;;;-3.70;99.90;;;-4.03;100.00;100536.38;4999506;28;20208;-77
2021/12/23 06:32:56;;;;;;;0.20;0.20;;;;;;;-4.01;100.00;100539.97;4989527;28;20448;-77
2021/12/23 06:35:28;;;;;;;0.35;0.35;;;-3.60;99.90;;;-4.03;100.00;100537.28;4975751;28;20219;-78
2021/12/23 06:37:57;;;;;;;0.45;0.45;;;-3.50;99.90;;;-4.02;100.00;100540.75;4989829;28;20208;-76
2021/12/23 06:40:25;;;;;;;0.90;0.90;;;-3.50;99.90;;;-3.99;100.00;100533.22;4978782;28;20205;-77
2021/12/23 06:42:53;;;;;;;0.30;0.30;;;;;;;-3.98;100.00;100537.59;4999871;28;20227;-77
2021/12/23 06:45:24;;;;;;;0.20;0.20;;;;;;;-3.99;100.00;100533.22;4961348;28;20220;-77
2021/12/23 06:47:52;;;;;;;0.20;0.20;;;-3.60;99.90;;;-4.00;100.00;100523.66;4980082;28;20285;-78
2021/12/23 06:50:21;;;;;;;1.17;1.17;;;-3.60;99.90;;;-3.99;100.00;100516.03;4984484;28;20219;-77
2021/12/23 06:52:50;;;;;;;0.55;0.55;;;-3.60;99.90;;;-3.97;100.00;100514.44;4974076;28;20225;-77
2021/12/23 06:55:19;;;;;;;0.68;0.68;;;-3.60;99.90;;;-3.95;100.00;100527.47;4943803;28;20205;-77
2021/12/23 06:57:53;;;;;;;0.40;0.40;;;-3.50;99.90;;;-3.96;100.00;100525.66;4969009;28;20204;-78
2021/12/23 07:00:25;;;;;;;0.20;0.20;;;-3.50;99.90;;;-3.97;100.00;100523.88;4949143;28;20203;-77
2021/12/23 07:02:54;;;;;;;0.30;0.30;;;;;;;-3.98;100.00;100522.97;4975860;28;20243;-79
2021/12/23 07:05:23;;;;;;;0.30;0.30;;;-3.40;99.90;;;-3.97;100.00;100516.13;5003381;28;20228;-77
2021/12/23 07:10:26;;;;;;;0.20;0.20;;;-3.60;99.90;;;-3.99;100.00;100505.69;4991328;28;20204;-76
2021/12/23 07:12:56;;;;;;;0.20;0.20;;;-3.60;99.90;;;-3.99;100.00;100504.78;4991608;28;20235;-77
2021/12/23 07:15:25;;;;;;;0.28;0.28;;;-3.60;99.90;;;-4.00;100.00;100500.41;4952767;28;20208;-77
2021/12/23 07:17:56;;;;;;;0.57;0.57;;;-3.60;99.90;;;-3.96;100.00;100511.06;4979671;28;20214;-77
2021/12/23 07:20:26;;;;;;;0.20;0.20;;;-3.50;99.90;;;-3.96;100.00;100521.41;4975093;28;20207;-77
2021/12/23 07:22:55;;;;;;;0.20;0.20;;;-3.50;99.90;;;-3.98;100.00;100515.22;4981526;28;20227;-77
2021/12/23 07:25:23;;;;;;;0.20;0.20;;;-3.50;99.90;;;-3.98;100.00;100502.31;5002617;28;20225;-78
2021/12/23 07:27:51;;;;;;;0.30;0.30;;;;;;;-3.99;100.00;100503.09;4990020;28;20204;-77
2021/12/23 07:30:20;;;;;;;0.13;0.13;;;-3.50;99.90;;;-4.04;100.00;100477.75;4987346;28;20580;-77
2021/12/23 07:32:50;;;;;;;0.30;0.30;;;-3.60;99.90;;;-4.05;100.00;100474.28;4984776;28;20236;-76
2021/12/23 07:35:18;;;;;;;0.20;0.20;;;-3.60;99.90;;;-4.07;100.00;100481.03;4972177;28;20197;-77
2021/12/23 07:37:46;;;;;;;0.20;0.20;;;-3.60;99.90;;;-4.07;100.00;100473.28;4968486;28;20210;-77
2021/12/23 07:40:17;;;;;;;0.20;0.20;;;-3.60;99.90;;;-4.07;100.00;100482.72;4974716;28;20220;-78
2021/12/23 07:42:56;;;;;;;4.30;1.65;;;-3.60;99.90;;;-4.04;100.00;100485.50;4979850;28;20217;-77
2021/12/23 07:45:29;;;;;;;0.20;0.20;;;-3.60;99.90;;;-4.04;100.00;100481.25;4983796;28;20694;-77
2021/12/23 07:47:58;;;;;;;0.20;0.20;;;;;;;-4.05;100.00;100473.38;4959243;28;20205;-76
2021/12/23 07:50:26;;;;;;;0.20;0.20;;;;;;;-4.05;100.00;100473.38;4939082;28;20200;-77
2021/12/23 07:52:54;;;;;;;0.20;0.20;;;-3.60;99.90;;;-4.04;100.00;100472.59;4969281;28;20231;-77
2021/12/23 07:55:23;;;;;;;0.20;0.20;;;-3.60;99.90;;;-3.99;100.00;100481.56;4995644;28;20201;-77
2021/12/23 07:57:50;;;;;;;0.20;0.20;;;-3.60;99.90;;;-3.99;100.00;100472.13;4968413;28;20205;-77
2021/12/23 08:00:20;;;;;;;0.20;0.20;;;-3.60;99.90;;;-3.97;100.00;100461.88;4979916;28;20204;-77
2021/12/23 08:02:48;;;;;;;0.20;0.20;;;;;;;-3.97;100.00;100446.38;5026587;28;20219;-78
2021/12/23 08:05:16;;;;;;;0.20;0.20;;;-3.50;99.90;;;-3.95;100.00;100457.72;4981653;28;20224;-77
2021/12/23 08:07:44;;;;;;;3.20;2.75;;;-3.50;99.90;;;-3.95;100.00;100450.84;4961549;28;20212;-76
2021/12/23 08:10:13;;;;;;;0.20;0.20;;;;;;;-3.91;100.00;100467.47;4957865;28;20204;-77
2021/12/23 08:12:41;;;;;;;0.20;0.20;;;-3.40;99.90;;;-3.90;100.00;100472.75;5004832;28;20239;-77
2021/12/23 08:15:09;;;;;;;0.20;0.20;;;-3.40;99.90;;;-3.85;100.00;100477.34;4942849;28;20298;-75
2021/12/23 08:17:38;;;;;;;0.20;0.20;;;-3.40;99.90;;;-3.78;100.00;100479.53;4974081;28;20212;-76
2021/12/23 08:20:15;;;;;;;0.77;0.77;;;-3.30;99.90;;;-3.79;100.00;100451.91;4954982;28;20204;-76
2021/12/23 08:22:43;;;;;;;0.20;0.20;;;-3.30;99.90;;;-3.76;100.00;100465.91;5008877;28;20220;-76
2021/12/23 08:25:13;;;;;;;0.40;0.40;;;-3.20;99.90;;;-3.71;100.00;100467.13;4949099;28;20229;-77
2021/12/23 08:27:43;;;;;;;0.20;0.20;;;-3.20;99.90;;;-3.66;100.00;100470.00;4963093;28;20205;-78
2021/12/23 08:30:14;;;;;;;0.20;0.20;;;-3.20;99.90;;;-3.64;100.00;100464.13;4962487;28;20208;-79
2021/12/23 08:32:41;;;;;;;0.20;0.20;;;-3.20;99.90;;;-3.62;100.00;100462.56;4945380;28;20236;-77
2021/12/23 08:35:10;;;;;;;0.20;0.20;;;-3.20;99.90;;;-3.56;100.00;100474.97;4959771;28;20288;-78
2021/12/23 08:37:46;;;;;;;0.60;0.60;;;-3.00;99.90;;;-3.51;100.00;100480.44;4977511;28;20232;-77
2021/12/23 08:40:22;;;;;;;0.20;0.20;;;-3.10;99.90;;;-3.49;100.00;100469.41;4992516;28;20224;-77
2021/12/23 08:42:52;;;;;;;0.20;0.20;;;-3.00;99.90;;;-3.48;100.00;100471.19;4992936;28;20228;-78
2021/12/23 08:45:20;;;;;;;0.10;0.10;;;-3.00;99.90;;;-3.43;100.00;100471.50;4992358;28;20231;-78
2021/12/23 08:47:50;;;;;;;0.20;0.20;;;-3.00;99.90;;;-3.38;100.00;100480.44;4993230;28;20204;-79
2021/12/23 08:50:20;;;;;;;0.10;0.10;;;-2.90;99.90;;;-3.33;100.00;100479.94;4992317;28;20208;-78
2021/12/23 08:52:48;;;;;;;0.10;0.10;;;;;;;-3.26;100.00;100486.41;4975807;28;20223;-79
2021/12/23 08:55:17;;;;;;;0.10;0.10;;;-2.80;99.90;;;-3.24;100.00;100479.66;4960480;28;20212;-78
2021/12/23 08:57:46;;;;;;;0.20;0.20;;;-2.80;99.90;;;-3.19;100.00;100482.53;4960468;28;20209;-77
2021/12/23 09:00:18;;;;;;;0.30;0.30;;;-2.70;99.90;;;-3.13;100.00;100485.50;4976680;28;20205;-77
2021/12/23 09:02:48;;;;;;;0.20;0.20;;;-2.70;99.90;;;-3.06;100.00;100474.75;4960734;28;20244;-77
2021/12/23 09:05:19;;;;;;;0.17;0.17;;;-2.60;99.90;;;-3.04;100.00;100474.03;5008714;28;20228;-78
2021/12/23 09:07:50;;;;;;;0.20;0.20;;;-2.50;99.90;;;-2.96;100.00;100466.75;5007917;28;20205;-79
2021/12/23 09:10:19;;;;;;;0.73;0.73;;;-2.50;99.90;;;-2.91;100.00;100471.44;4976040;28;20207;-77
2021/12/23 09:12:48;;;;;;;0.20;0.20;;;-2.40;99.90;;;-2.85;100.00;100475.19;5008749;28;20567;-77
2021/12/23 09:15:17;;;;;;;0.20;0.20;;;-2.40;99.90;;;-2.82;100.00;100472.81;4960465;28;20209;-77
2021/12/23 09:17:45;;;;;;;0.22;0.22;;;;;;;-2.78;100.00;100475.69;4960228;28;20217;-79
2021/12/23 09:20:16;;;;;;;0.20;0.20;;;-2.30;99.90;;;-2.71;100.00;100472.66;4940616;28;20213;-78
2021/12/23 09:22:51;;;;;;;0.10;0.10;;;-2.30;99.90;;;-2.67;100.00;100474.66;4988119;28;20231;-79
2021/12/23 09:25:31;;;;;;;0.20;0.20;;;-2.20;99.90;;;-2.63;100.00;100479.22;4951594;28;20233;-77
2021/12/23 09:28:26;;;;;;;0.30;0.30;;;-2.10;99.90;;;-2.58;100.00;100482.13;4978526;28;20204;-77
2021/12/23 09:33:45;;;;;;;0.20;0.20;;;-2.00;99.90;;;-2.48;100.00;100491.34;5006215;28;20220;-77
2021/12/23 09:36:14;;;;;;;0.20;0.20;;;-2.00;99.90;;;-2.45;100.00;100497.59;4975649;28;20205;-78
2021/12/23 09:38:43;;;;;;;0.20;0.20;;;-2.00;99.90;;;-2.42;100.00;100484.84;4975763;28;20212;-78
2021/12/23 09:41:15;;;;;;;0.20;0.20;;;-1.90;99.90;;;-2.38;100.00;100492.00;4992744;28;20224;-77
2021/12/23 09:43:43;;;;;;;0.30;0.30;;;-1.90;99.90;;;-2.32;100.00;100500.16;4959769;28;20239;-77
2021/12/23 09:46:17;;;;;;;0.30;0.30;;;-1.70;99.90;;;-2.28;100.00;100491.75;4976087;28;20243;-78
2021/12/23 09:48:47;;;;;;;0.20;0.20;;;-1.60;99.90;;;-2.22;100.00;100498.13;4959331;28;20205;-78
2021/12/23 09:51:20;;;;;;;0.10;0.10;;;-1.60;99.90;;;-2.17;100.00;100505.38;5008769;28;20207;-78
2021/12/23 09:53:56;;;;;;;0.10;0.10;;;-1.50;99.90;;;-2.11;100.00;100508.31;4975139;28;20225;-77
2021/12/23 09:56:29;;;;;;;0.17;0.17;;;-1.50;99.90;;;-2.05;100.00;100500.91;4975180;28;20204;-79
2021/12/23 09:58:59;;;;;;;0.30;0.30;;;-1.50;99.90;;;-2.00;100.00;100507.28;4975558;28;20205;-77
2021/12/23 10:01:32;;;;;;;0.60;0.60;;;0.00;99.90;;;-1.95;100.00;100499.78;4959783;28;20220;-77
2021/12/23 10:04:01;;;;;;;0.10;0.10;;;;;;;-1.90;100.00;100489.66;4959300;28;20855;-79
2021/12/23 10:06:29;;;;;;;0.20;0.20;;;;;;;-1.85;100.00;100473.59;4991443;28;20209;-79
2021/12/23 10:08:58;;;;;;;0.20;0.20;;;-0.90;99.90;;;-1.80;100.00;100472.16;5007574;28;20208;-78
2021/12/23 10:31:07;;;;;;;0.20;0.20;;;;;;;-1.37;100.00;100462.56;5008479;28;20208;-77
2021/12/23 10:33:50;;;;;;;0.22;0.22;;;;;;;-1.27;100.00;100463.09;5005708;28;20243;-78
2021/12/23 10:39:25;;;;;;;0.20;0.20;;;-0.60;99.90;;;-1.21;100.00;100451.38;4992843;28;20200;-79
2021/12/23 10:42:26;;;;;;;0.10;0.10;;;-0.50;99.90;;;-1.13;100.00;100438.81;4958995;28;20208;-77
2021/12/23 10:45:08;;;;;;;0.30;0.30;;;-0.50;99.90;;;-1.06;100.00;100436.66;4975047;28;20204;-78
2021/12/23 10:48:04;;;;;;;0.20;0.20;;;-0.40;99.90;;;-0.92;100.00;100446.88;4958694;28;20240;-79
2021/12/23 10:53:36;;;;;;;0.20;0.20;;;-0.10;99.90;;;-0.76;100.00;100445.22;4990453;28;20228;-77
2021/12/23 10:59:16;;;;;;;0.20;0.20;;;0.00;99.90;;;-0.65;100.00;100435.41;4990569;28;20567;-77
2021/12/23 11:02:16;;;;;;;0.10;0.10;;;0.10;99.90;;;-0.53;100.00;100440.34;5006801;28;20216;-77
2021/12/23 11:43:59;;;;;;;0.10;0.10;;;0.90;99.90;;;0.25;100.00;100343.88;4974950;28;20691;-78
2021/12/23 11:46:44;;;;;;;0.10;0.10;;;0.90;99.90;;;0.28;100.00;100347.50;4941894;28;20228;-79
2021/12/23 11:49:13;;;;;;;0.10;0.10;;;1.00;99.90;;;0.40;100.00;100336.81;4973029;28;20209;-78
2021/12/23 11:54:40;;;;;;;0.10;0.10;;;1.10;99.90;;;0.49;100.00;100331.16;4994760;28;20235;-78